Mina, Nevada
Current Conditions -  °F | °C
As of 5:56 AM on Monday 24 Nov 2014 (Local Time) from KTPH Reporting Station
Clear Clear  
Wind Chill: 10°   Ceiling: Unl
Heat Index: 22°   Visibility: 10mi
Dew Point:   Wind: 13mph
Humidity: 53%   Direction: 20°NNE
Pressure: 30.37"   Gusts: NA
Location:  38.39°N, 118.11°W
Report Text: KTPH 241356Z AUTO 02011KT 10SM CLR M06/M14 A3037 RMK AO2 SLP298 T10561139
Loading
Personal Weather Stations






























Interactive Weather Map New forecast layout! Learn more

10-Day Weather Forecast

Advertisements
Track Severe Weather on mobile